sensor_id;sensor_type;location;lat;lon;timestamp;P1;durP1;ratioP1;P2;durP2;ratioP2
21014;SDS011;19207;-23.482;-46.500;2023-02-28T00:00:06;12.02;;;5.70;;
21014;SDS011;19207;-23.482;-46.500;2023-02-28T00:02:56;11.82;;;6.00;;
21014;SDS011;19207;-23.482;-46.500;2023-02-28T00:05:45;15.95;;;5.80;;
21014;SDS011;19207;-23.482;-46.500;2023-02-28T00:08:32;14.13;;;6.30;;
21014;SDS011;19207;-23.482;-46.500;2023-02-28T00:11:19;11.55;;;6.25;;
21014;SDS011;19207;-23.482;-46.500;2023-02-28T00:14:06;10.32;;;5.68;;
21014;SDS011;19207;-23.482;-46.500;2023-02-28T00:16:53;14.35;;;5.80;;
21014;SDS011;19207;-23.482;-46.500;2023-02-28T00:19:42;13.32;;;5.30;;
21014;SDS011;19207;-23.482;-46.500;2023-02-28T00:22:29;14.13;;;5.70;;
21014;SDS011;19207;-23.482;-46.500;2023-02-28T00:25:20;11.70;;;5.78;;
21014;SDS011;19207;-23.482;-46.500;2023-02-28T00:28:09;15.35;;;6.12;;
21014;SDS011;19207;-23.482;-46.500;2023-02-28T00:30:59;10.82;;;5.55;;
21014;SDS011;19207;-23.482;-46.500;2023-02-28T00:33:47;10.73;;;5.35;;
21014;SDS011;19207;-23.482;-46.500;2023-02-28T00:36:37;13.98;;;5.37;;
21014;SDS011;19207;-23.482;-46.500;2023-02-28T00:39:24;9.75;;;5.65;;
21014;SDS011;19207;-23.482;-46.500;2023-02-28T00:42:11;10.38;;;6.20;;
21014;SDS011;19207;-23.482;-46.500;2023-02-28T00:44:59;12.37;;;5.80;;
21014;SDS011;19207;-23.482;-46.500;2023-02-28T00:47:47;12.02;;;6.47;;
21014;SDS011;19207;-23.482;-46.500;2023-02-28T00:50:38;11.38;;;5.80;;
21014;SDS011;19207;-23.482;-46.500;2023-02-28T00:53:25;19.27;;;7.28;;
21014;SDS011;19207;-23.482;-46.500;2023-02-28T00:56:12;15.63;;;8.10;;
21014;SDS011;19207;-23.482;-46.500;2023-02-28T00:59:04;10.48;;;5.87;;
21014;SDS011;19207;-23.482;-46.500;2023-02-28T01:01:52;15.82;;;8.18;;
21014;SDS011;19207;-23.482;-46.500;2023-02-28T01:04:40;21.02;;;12.50;;
21014;SDS011;19207;-23.482;-46.500;2023-02-28T01:07:31;21.37;;;12.63;;
21014;SDS011;19207;-23.482;-46.500;2023-02-28T01:10:21;23.98;;;14.98;;
21014;SDS011;19207;-23.482;-46.500;2023-02-28T01:13:08;18.05;;;11.05;;
21014;SDS011;19207;-23.482;-46.500;2023-02-28T01:15:56;19.35;;;11.52;;
21014;SDS011;19207;-23.482;-46.500;2023-02-28T01:18:45;19.58;;;8.48;;
21014;SDS011;19207;-23.482;-46.500;2023-02-28T01:21:32;14.70;;;7.15;;
21014;SDS011;19207;-23.482;-46.500;2023-02-28T01:24:25;10.20;;;6.45;;
21014;SDS011;19207;-23.482;-46.500;2023-02-28T01:27:12;9.27;;;5.97;;
21014;SDS011;19207;-23.482;-46.500;2023-02-28T01:29:59;14.18;;;6.70;;
21014;SDS011;19207;-23.482;-46.500;2023-02-28T01:32:47;7.05;;;4.75;;
21014;SDS011;19207;-23.482;-46.500;2023-02-28T01:35:36;6.53;;;4.30;;
21014;SDS011;19207;-23.482;-46.500;2023-02-28T01:38:25;5.87;;;4.47;;
21014;SDS011;19207;-23.482;-46.500;2023-02-28T01:41:17;10.40;;;4.50;;
21014;SDS011;19207;-23.482;-46.500;2023-02-28T01:44:06;7.45;;;5.30;;
21014;SDS011;19207;-23.482;-46.500;2023-02-28T01:46:54;8.68;;;4.20;;
21014;SDS011;19207;-23.482;-46.500;2023-02-28T01:49:44;6.75;;;4.10;;
21014;SDS011;19207;-23.482;-46.500;2023-02-28T01:52:31;7.72;;;4.20;;
21014;SDS011;19207;-23.482;-46.500;2023-02-28T01:55:19;5.75;;;4.50;;
21014;SDS011;19207;-23.482;-46.500;2023-02-28T01:58:07;6.57;;;4.32;;
21014;SDS011;19207;-23.482;-46.500;2023-02-28T02:00:54;7.47;;;4.50;;
21014;SDS011;19207;-23.482;-46.500;2023-02-28T02:03:43;12.30;;;5.90;;
21014;SDS011;19207;-23.482;-46.500;2023-02-28T02:06:36;7.82;;;4.85;;
21014;SDS011;19207;-23.482;-46.500;2023-02-28T02:09:25;10.85;;;6.22;;
21014;SDS011;19207;-23.482;-46.500;2023-02-28T02:15:42;10.13;;;6.60;;
21014;SDS011;19207;-23.482;-46.500;2023-02-28T02:18:45;11.02;;;6.75;;
21014;SDS011;19207;-23.482;-46.500;2023-02-28T02:39:14;22.20;;;12.43;;
21014;SDS011;19207;-23.482;-46.500;2023-02-28T02:42:11;21.73;;;10.35;;
21014;SDS011;19207;-23.482;-46.500;2023-02-28T02:45:11;17.27;;;10.80;;
21014;SDS011;19207;-23.482;-46.500;2023-02-28T02:48:00;17.85;;;9.95;;
21014;SDS011;19207;-23.482;-46.500;2023-02-28T02:50:49;18.00;;;10.65;;
21014;SDS011;19207;-23.482;-46.500;2023-02-28T02:53:41;22.15;;;10.43;;
21014;SDS011;19207;-23.482;-46.500;2023-02-28T02:56:29;20.77;;;10.80;;
21014;SDS011;19207;-23.482;-46.500;2023-02-28T02:59:21;19.00;;;10.48;;
21014;SDS011;19207;-23.482;-46.500;2023-02-28T03:02:11;22.40;;;11.40;;
21014;SDS011;19207;-23.482;-46.500;2023-02-28T03:05:00;18.73;;;10.60;;
21014;SDS011;19207;-23.482;-46.500;2023-02-28T03:07:48;22.17;;;12.18;;
21014;SDS011;19207;-23.482;-46.500;2023-02-28T03:10:37;19.15;;;10.45;;
21014;SDS011;19207;-23.482;-46.500;2023-02-28T03:13:37;20.48;;;10.68;;
21014;SDS011;19207;-23.482;-46.500;2023-02-28T03:16:32;22.30;;;10.75;;
21014;SDS011;19207;-23.482;-46.500;2023-02-28T03:19:34;17.10;;;8.90;;
21014;SDS011;19207;-23.482;-46.500;2023-02-28T03:28:29;14.05;;;8.30;;
21014;SDS011;19207;-23.482;-46.500;2023-02-28T03:31:20;21.15;;;10.40;;
21014;SDS011;19207;-23.482;-46.500;2023-02-28T03:37:08;19.80;;;9.85;;
21014;SDS011;19207;-23.482;-46.500;2023-02-28T03:40:01;23.12;;;13.40;;
21014;SDS011;19207;-23.482;-46.500;2023-02-28T03:42:51;24.50;;;14.20;;
21014;SDS011;19207;-23.482;-46.500;2023-02-28T03:45:46;23.48;;;14.30;;
21014;SDS011;19207;-23.482;-46.500;2023-02-28T03:48:46;21.95;;;13.75;;
21014;SDS011;19207;-23.482;-46.500;2023-02-28T03:51:35;21.17;;;13.23;;
21014;SDS011;19207;-23.482;-46.500;2023-02-28T03:54:24;26.40;;;14.05;;
21014;SDS011;19207;-23.482;-46.500;2023-02-28T03:57:28;31.42;;;13.82;;
21014;SDS011;19207;-23.482;-46.500;2023-02-28T04:00:25;26.42;;;14.30;;
21014;SDS011;19207;-23.482;-46.500;2023-02-28T04:03:15;26.70;;;14.85;;
21014;SDS011;19207;-23.482;-46.500;2023-02-28T04:06:04;19.40;;;11.40;;
21014;SDS011;19207;-23.482;-46.500;2023-02-28T04:08:53;21.50;;;10.05;;
21014;SDS011;19207;-23.482;-46.500;2023-02-28T04:11:44;19.25;;;10.15;;
21014;SDS011;19207;-23.482;-46.500;2023-02-28T04:14:32;17.05;;;10.98;;
21014;SDS011;19207;-23.482;-46.500;2023-02-28T04:17:20;19.83;;;11.55;;
21014;SDS011;19207;-23.482;-46.500;2023-02-28T04:20:09;23.45;;;11.57;;
21014;SDS011;19207;-23.482;-46.500;2023-02-28T04:22:57;16.48;;;10.10;;
21014;SDS011;19207;-23.482;-46.500;2023-02-28T04:25:45;24.80;;;11.25;;
21014;SDS011;19207;-23.482;-46.500;2023-02-28T04:28:32;22.90;;;12.77;;
21014;SDS011;19207;-23.482;-46.500;2023-02-28T04:31:20;22.08;;;12.27;;
21014;SDS011;19207;-23.482;-46.500;2023-02-28T04:34:07;26.25;;;13.02;;
21014;SDS011;19207;-23.482;-46.500;2023-02-28T04:36:55;25.00;;;12.73;;
21014;SDS011;19207;-23.482;-46.500;2023-02-28T04:39:48;30.37;;;13.48;;
21014;SDS011;19207;-23.482;-46.500;2023-02-28T04:42:36;22.90;;;12.37;;
21014;SDS011;19207;-23.482;-46.500;2023-02-28T04:45:26;19.45;;;11.63;;
21014;SDS011;19207;-23.482;-46.500;2023-02-28T04:48:16;17.52;;;9.82;;
21014;SDS011;19207;-23.482;-46.500;2023-02-28T04:51:04;18.73;;;10.68;;
21014;SDS011;19207;-23.482;-46.500;2023-02-28T04:53:52;18.80;;;10.55;;
21014;SDS011;19207;-23.482;-46.500;2023-02-28T04:56:39;17.30;;;9.50;;
21014;SDS011;19207;-23.482;-46.500;2023-02-28T04:59:27;15.77;;;9.50;;
21014;SDS011;19207;-23.482;-46.500;2023-02-28T05:02:14;14.43;;;8.60;;
21014;SDS011;19207;-23.482;-46.500;2023-02-28T05:05:02;13.68;;;8.52;;
21014;SDS011;19207;-23.482;-46.500;2023-02-28T05:07:51;17.75;;;9.43;;
21014;SDS011;19207;-23.482;-46.500;2023-02-28T05:10:40;21.00;;;9.85;;
21014;SDS011;19207;-23.482;-46.500;2023-02-28T05:13:28;16.87;;;9.27;;
21014;SDS011;19207;-23.482;-46.500;2023-02-28T05:16:16;17.52;;;9.18;;
21014;SDS011;19207;-23.482;-46.500;2023-02-28T05:19:03;16.65;;;9.80;;
21014;SDS011;19207;-23.482;-46.500;2023-02-28T05:21:52;19.23;;;10.25;;
21014;SDS011;19207;-23.482;-46.500;2023-02-28T05:24:39;19.67;;;10.20;;
21014;SDS011;19207;-23.482;-46.500;2023-02-28T05:27:27;18.37;;;10.30;;
21014;SDS011;19207;-23.482;-46.500;2023-02-28T05:30:14;20.15;;;9.65;;
21014;SDS011;19207;-23.482;-46.500;2023-02-28T05:33:03;19.35;;;10.15;;
21014;SDS011;19207;-23.482;-46.500;2023-02-28T05:35:52;19.27;;;10.68;;
21014;SDS011;19207;-23.482;-46.500;2023-02-28T05:38:40;18.77;;;9.65;;
21014;SDS011;19207;-23.482;-46.500;2023-02-28T05:41:27;24.48;;;10.68;;
21014;SDS011;19207;-23.482;-46.500;2023-02-28T05:44:15;19.48;;;9.75;;
21014;SDS011;19207;-23.482;-46.500;2023-02-28T05:47:02;27.08;;;12.50;;
21014;SDS011;19207;-23.482;-46.500;2023-02-28T05:49:52;21.12;;;11.02;;
21014;SDS011;19207;-23.482;-46.500;2023-02-28T05:52:40;21.65;;;10.18;;
21014;SDS011;19207;-23.482;-46.500;2023-02-28T05:55:28;20.33;;;10.88;;
21014;SDS011;19207;-23.482;-46.500;2023-02-28T05:58:15;25.98;;;11.75;;
21014;SDS011;19207;-23.482;-46.500;2023-02-28T06:01:20;28.05;;;11.45;;
21014;SDS011;19207;-23.482;-46.500;2023-02-28T06:04:09;31.95;;;11.98;;
21014;SDS011;19207;-23.482;-46.500;2023-02-28T06:06:57;31.37;;;11.30;;
21014;SDS011;19207;-23.482;-46.500;2023-02-28T06:09:45;28.85;;;12.13;;
21014;SDS011;19207;-23.482;-46.500;2023-02-28T06:12:33;30.33;;;12.80;;
21014;SDS011;19207;-23.482;-46.500;2023-02-28T06:15:21;34.13;;;11.93;;
21014;SDS011;19207;-23.482;-46.500;2023-02-28T06:18:13;27.17;;;12.02;;
21014;SDS011;19207;-23.482;-46.500;2023-02-28T06:21:01;36.00;;;11.48;;
21014;SDS011;19207;-23.482;-46.500;2023-02-28T06:23:49;26.02;;;12.00;;
21014;SDS011;19207;-23.482;-46.500;2023-02-28T06:26:37;22.90;;;11.05;;
21014;SDS011;19207;-23.482;-46.500;2023-02-28T06:29:24;25.77;;;11.52;;
21014;SDS011;19207;-23.482;-46.500;2023-02-28T06:32:15;31.17;;;12.32;;
21014;SDS011;19207;-23.482;-46.500;2023-02-28T06:35:03;26.25;;;10.45;;
21014;SDS011;19207;-23.482;-46.500;2023-02-28T06:37:50;23.45;;;10.85;;
21014;SDS011;19207;-23.482;-46.500;2023-02-28T06:40:37;32.75;;;12.07;;
21014;SDS011;19207;-23.482;-46.500;2023-02-28T06:43:25;23.83;;;10.38;;
21014;SDS011;19207;-23.482;-46.500;2023-02-28T06:46:14;26.12;;;11.05;;
21014;SDS011;19207;-23.482;-46.500;2023-02-28T06:49:05;28.58;;;11.95;;
21014;SDS011;19207;-23.482;-46.500;2023-02-28T06:51:54;25.65;;;10.68;;
21014;SDS011;19207;-23.482;-46.500;2023-02-28T06:54:41;28.38;;;10.80;;
21014;SDS011;19207;-23.482;-46.500;2023-02-28T06:57:29;34.63;;;11.60;;
21014;SDS011;19207;-23.482;-46.500;2023-02-28T07:00:17;27.98;;;11.52;;
21014;SDS011;19207;-23.482;-46.500;2023-02-28T07:03:05;33.60;;;11.55;;
21014;SDS011;19207;-23.482;-46.500;2023-02-28T07:05:53;31.92;;;11.38;;
21014;SDS011;19207;-23.482;-46.500;2023-02-28T07:08:41;23.92;;;10.27;;
21014;SDS011;19207;-23.482;-46.500;2023-02-28T07:11:29;23.98;;;10.38;;
21014;SDS011;19207;-23.482;-46.500;2023-02-28T07:14:16;23.15;;;10.05;;
21014;SDS011;19207;-23.482;-46.500;2023-02-28T07:17:06;24.25;;;10.18;;
21014;SDS011;19207;-23.482;-46.500;2023-02-28T07:19:53;25.27;;;10.18;;
21014;SDS011;19207;-23.482;-46.500;2023-02-28T07:22:41;23.67;;;10.75;;
21014;SDS011;19207;-23.482;-46.500;2023-02-28T07:25:29;25.80;;;11.02;;
21014;SDS011;19207;-23.482;-46.500;2023-02-28T07:28:17;28.27;;;11.73;;
21014;SDS011;19207;-23.482;-46.500;2023-02-28T07:31:05;25.90;;;11.43;;
21014;SDS011;19207;-23.482;-46.500;2023-02-28T07:33:53;26.45;;;9.98;;
21014;SDS011;19207;-23.482;-46.500;2023-02-28T07:36:42;24.58;;;9.77;;
21014;SDS011;19207;-23.482;-46.500;2023-02-28T07:39:29;21.42;;;9.70;;
21014;SDS011;19207;-23.482;-46.500;2023-02-28T07:42:20;19.05;;;9.48;;
21014;SDS011;19207;-23.482;-46.500;2023-02-28T07:45:08;25.05;;;9.77;;
21014;SDS011;19207;-23.482;-46.500;2023-02-28T07:47:58;29.42;;;9.43;;
21014;SDS011;19207;-23.482;-46.500;2023-02-28T07:50:52;27.87;;;9.30;;
21014;SDS011;19207;-23.482;-46.500;2023-02-28T07:53:41;24.00;;;9.30;;
21014;SDS011;19207;-23.482;-46.500;2023-02-28T07:56:28;21.87;;;9.23;;
21014;SDS011;19207;-23.482;-46.500;2023-02-28T07:59:15;23.25;;;8.85;;
21014;SDS011;19207;-23.482;-46.500;2023-02-28T08:02:14;18.83;;;9.25;;
21014;SDS011;19207;-23.482;-46.500;2023-02-28T08:05:02;19.73;;;9.48;;
21014;SDS011;19207;-23.482;-46.500;2023-02-28T08:07:49;23.62;;;10.38;;
21014;SDS011;19207;-23.482;-46.500;2023-02-28T08:10:36;22.90;;;10.38;;
21014;SDS011;19207;-23.482;-46.500;2023-02-28T08:13:25;18.83;;;10.20;;
21014;SDS011;19207;-23.482;-46.500;2023-02-28T08:16:13;23.02;;;10.90;;
21014;SDS011;19207;-23.482;-46.500;2023-02-28T08:19:04;19.60;;;10.15;;
21014;SDS011;19207;-23.482;-46.500;2023-02-28T08:21:52;21.00;;;10.13;;
21014;SDS011;19207;-23.482;-46.500;2023-02-28T08:24:42;21.02;;;10.30;;
21014;SDS011;19207;-23.482;-46.500;2023-02-28T08:27:30;28.30;;;10.10;;
21014;SDS011;19207;-23.482;-46.500;2023-02-28T08:30:18;26.75;;;10.23;;
21014;SDS011;19207;-23.482;-46.500;2023-02-28T08:33:06;23.50;;;10.00;;
21014;SDS011;19207;-23.482;-46.500;2023-02-28T08:35:54;22.87;;;9.70;;
21014;SDS011;19207;-23.482;-46.500;2023-02-28T08:38:42;30.67;;;12.45;;
21014;SDS011;19207;-23.482;-46.500;2023-02-28T08:41:29;26.45;;;11.90;;
21014;SDS011;19207;-23.482;-46.500;2023-02-28T08:44:17;29.73;;;11.07;;
21014;SDS011;19207;-23.482;-46.500;2023-02-28T08:47:05;33.25;;;13.68;;
21014;SDS011;19207;-23.482;-46.500;2023-02-28T08:49:53;29.45;;;12.73;;
21014;SDS011;19207;-23.482;-46.500;2023-02-28T08:52:44;32.20;;;12.00;;
21014;SDS011;19207;-23.482;-46.500;2023-02-28T08:55:35;35.08;;;12.60;;
21014;SDS011;19207;-23.482;-46.500;2023-02-28T08:58:22;32.83;;;13.62;;
21014;SDS011;19207;-23.482;-46.500;2023-02-28T09:01:10;30.65;;;13.70;;
21014;SDS011;19207;-23.482;-46.500;2023-02-28T09:03:58;31.40;;;13.70;;
21014;SDS011;19207;-23.482;-46.500;2023-02-28T09:06:45;32.45;;;13.07;;
21014;SDS011;19207;-23.482;-46.500;2023-02-28T09:09:34;40.80;;;14.95;;
21014;SDS011;19207;-23.482;-46.500;2023-02-28T09:12:22;39.60;;;13.77;;
21014;SDS011;19207;-23.482;-46.500;2023-02-28T09:15:09;36.58;;;14.38;;
21014;SDS011;19207;-23.482;-46.500;2023-02-28T09:17:57;36.28;;;14.38;;
21014;SDS011;19207;-23.482;-46.500;2023-02-28T09:20:45;39.90;;;14.50;;
21014;SDS011;19207;-23.482;-46.500;2023-02-28T09:23:34;40.15;;;15.00;;
21014;SDS011;19207;-23.482;-46.500;2023-02-28T09:26:25;43.90;;;15.30;;
21014;SDS011;19207;-23.482;-46.500;2023-02-28T09:29:13;37.42;;;14.70;;
21014;SDS011;19207;-23.482;-46.500;2023-02-28T09:32:02;32.70;;;13.90;;
21014;SDS011;19207;-23.482;-46.500;2023-02-28T09:34:51;38.80;;;13.65;;
21014;SDS011;19207;-23.482;-46.500;2023-02-28T09:37:39;37.45;;;14.15;;
21014;SDS011;19207;-23.482;-46.500;2023-02-28T09:40:26;37.15;;;14.38;;
21014;SDS011;19207;-23.482;-46.500;2023-02-28T09:43:14;36.55;;;13.98;;
21014;SDS011;19207;-23.482;-46.500;2023-02-28T09:48:53;37.13;;;13.90;;
21014;SDS011;19207;-23.482;-46.500;2023-02-28T09:54:32;36.15;;;14.02;;
21014;SDS011;19207;-23.482;-46.500;2023-02-28T10:00:20;38.88;;;13.55;;
21014;SDS011;19207;-23.482;-46.500;2023-02-28T10:03:20;37.30;;;14.30;;
21014;SDS011;19207;-23.482;-46.500;2023-02-28T10:06:19;36.15;;;14.05;;
21014;SDS011;19207;-23.482;-46.500;2023-02-28T10:09:11;45.92;;;15.38;;
21014;SDS011;19207;-23.482;-46.500;2023-02-28T10:12:03;36.15;;;16.48;;
21014;SDS011;19207;-23.482;-46.500;2023-02-28T10:14:51;37.88;;;16.55;;
21014;SDS011;19207;-23.482;-46.500;2023-02-28T10:17:40;40.60;;;17.40;;
21014;SDS011;19207;-23.482;-46.500;2023-02-28T10:20:31;39.60;;;16.60;;
21014;SDS011;19207;-23.482;-46.500;2023-02-28T10:23:28;37.95;;;16.62;;
21014;SDS011;19207;-23.482;-46.500;2023-02-28T10:26:18;37.70;;;17.23;;
21014;SDS011;19207;-23.482;-46.500;2023-02-28T10:29:07;39.65;;;17.52;;
21014;SDS011;19207;-23.482;-46.500;2023-02-28T10:31:55;43.30;;;17.10;;
21014;SDS011;19207;-23.482;-46.500;2023-02-28T10:34:42;49.70;;;17.25;;
21014;SDS011;19207;-23.482;-46.500;2023-02-28T10:37:32;49.13;;;17.15;;
21014;SDS011;19207;-23.482;-46.500;2023-02-28T10:48:50;28.45;;;13.48;;
21014;SDS011;19207;-23.482;-46.500;2023-02-28T10:51:43;27.42;;;12.80;;
21014;SDS011;19207;-23.482;-46.500;2023-02-28T10:54:36;28.70;;;12.73;;
21014;SDS011;19207;-23.482;-46.500;2023-02-28T10:57:23;27.35;;;14.15;;
21014;SDS011;19207;-23.482;-46.500;2023-02-28T11:00:23;23.95;;;13.62;;
21014;SDS011;19207;-23.482;-46.500;2023-02-28T11:03:29;20.08;;;9.70;;
21014;SDS011;19207;-23.482;-46.500;2023-02-28T11:06:21;16.62;;;7.60;;
21014;SDS011;19207;-23.482;-46.500;2023-02-28T11:12:38;20.10;;;7.95;;
21014;SDS011;19207;-23.482;-46.500;2023-02-28T11:15:37;20.20;;;8.15;;
21014;SDS011;19207;-23.482;-46.500;2023-02-28T11:18:29;15.70;;;8.30;;
21014;SDS011;19207;-23.482;-46.500;2023-02-28T11:21:20;18.27;;;8.02;;
21014;SDS011;19207;-23.482;-46.500;2023-02-28T11:24:24;14.98;;;10.27;;
21014;SDS011;19207;-23.482;-46.500;2023-02-28T11:30:30;20.77;;;9.77;;
21014;SDS011;19207;-23.482;-46.500;2023-02-28T11:33:21;15.07;;;9.57;;
21014;SDS011;19207;-23.482;-46.500;2023-02-28T11:36:27;19.35;;;8.63;;
21014;SDS011;19207;-23.482;-46.500;2023-02-28T11:39:14;10.23;;;7.50;;
21014;SDS011;19207;-23.482;-46.500;2023-02-28T11:42:08;13.57;;;6.60;;
21014;SDS011;19207;-23.482;-46.500;2023-02-28T11:51:32;9.05;;;5.55;;
21014;SDS011;19207;-23.482;-46.500;2023-02-28T11:56:51;9.57;;;6.45;;
21014;SDS011;19207;-23.482;-46.500;2023-02-28T12:02:42;10.13;;;6.10;;
21014;SDS011;19207;-23.482;-46.500;2023-02-28T12:05:56;11.68;;;6.65;;
21014;SDS011;19207;-23.482;-46.500;2023-02-28T12:17:34;8.07;;;3.45;;
21014;SDS011;19207;-23.482;-46.500;2023-02-28T12:29:27;6.82;;;3.92;;
21014;SDS011;19207;-23.482;-46.500;2023-02-28T12:35:04;9.20;;;4.53;;
21014;SDS011;19207;-23.482;-46.500;2023-02-28T12:37:57;13.65;;;11.57;;
21014;SDS011;19207;-23.482;-46.500;2023-02-28T12:41:29;7.05;;;4.80;;
21014;SDS011;19207;-23.482;-46.500;2023-02-28T12:44:01;7.37;;;4.60;;
21014;SDS011;19207;-23.482;-46.500;2023-02-28T12:46:50;10.35;;;5.57;;
21014;SDS011;19207;-23.482;-46.500;2023-02-28T12:49:39;8.18;;;4.97;;
21014;SDS011;19207;-23.482;-46.500;2023-02-28T12:52:31;10.65;;;4.30;;
21014;SDS011;19207;-23.482;-46.500;2023-02-28T13:09:50;15.95;;;8.07;;
21014;SDS011;19207;-23.482;-46.500;2023-02-28T13:12:38;14.43;;;7.85;;
21014;SDS011;19207;-23.482;-46.500;2023-02-28T13:15:34;15.73;;;8.90;;
21014;SDS011;19207;-23.482;-46.500;2023-02-28T13:21:43;15.98;;;8.70;;
21014;SDS011;19207;-23.482;-46.500;2023-02-28T13:27:35;20.80;;;9.73;;
21014;SDS011;19207;-23.482;-46.500;2023-02-28T13:33:30;15.70;;;9.63;;
21014;SDS011;19207;-23.482;-46.500;2023-02-28T13:42:36;11.00;;;7.72;;
21014;SDS011;19207;-23.482;-46.500;2023-02-28T13:45:27;18.50;;;8.98;;
21014;SDS011;19207;-23.482;-46.500;2023-02-28T13:48:16;18.60;;;10.20;;
21014;SDS011;19207;-23.482;-46.500;2023-02-28T13:51:26;16.08;;;10.13;;
21014;SDS011;19207;-23.482;-46.500;2023-02-28T13:54:16;16.25;;;9.85;;
21014;SDS011;19207;-23.482;-46.500;2023-02-28T14:00:30;22.48;;;10.80;;
21014;SDS011;19207;-23.482;-46.500;2023-02-28T14:03:36;19.25;;;11.00;;
21014;SDS011;19207;-23.482;-46.500;2023-02-28T14:18:24;16.30;;;8.60;;
21014;SDS011;19207;-23.482;-46.500;2023-02-28T14:38:40;16.60;;;8.30;;
21014;SDS011;19207;-23.482;-46.500;2023-02-28T14:41:29;20.05;;;8.93;;
21014;SDS011;19207;-23.482;-46.500;2023-02-28T14:44:21;17.58;;;8.90;;
21014;SDS011;19207;-23.482;-46.500;2023-02-28T14:47:11;20.27;;;8.98;;
21014;SDS011;19207;-23.482;-46.500;2023-02-28T14:50:00;18.35;;;9.40;;
21014;SDS011;19207;-23.482;-46.500;2023-02-28T14:52:51;21.60;;;10.48;;
21014;SDS011;19207;-23.482;-46.500;2023-02-28T14:55:43;22.05;;;9.93;;
21014;SDS011;19207;-23.482;-46.500;2023-02-28T14:58:31;18.90;;;9.68;;
21014;SDS011;19207;-23.482;-46.500;2023-02-28T15:01:19;17.60;;;8.93;;
21014;SDS011;19207;-23.482;-46.500;2023-02-28T15:04:15;20.73;;;9.32;;
21014;SDS011;19207;-23.482;-46.500;2023-02-28T15:07:09;15.20;;;8.82;;
21014;SDS011;19207;-23.482;-46.500;2023-02-28T15:10:10;18.23;;;9.63;;
21014;SDS011;19207;-23.482;-46.500;2023-02-28T15:12:58;15.60;;;9.05;;
21014;SDS011;19207;-23.482;-46.500;2023-02-28T15:21:41;21.10;;;8.57;;
21014;SDS011;19207;-23.482;-46.500;2023-02-28T15:24:40;14.98;;;8.45;;
21014;SDS011;19207;-23.482;-46.500;2023-02-28T15:27:31;11.95;;;8.30;;
21014;SDS011;19207;-23.482;-46.500;2023-02-28T15:30:21;19.33;;;8.38;;
21014;SDS011;19207;-23.482;-46.500;2023-02-28T15:39:18;19.42;;;8.18;;
21014;SDS011;19207;-23.482;-46.500;2023-02-28T15:42:38;11.35;;;7.32;;
21014;SDS011;19207;-23.482;-46.500;2023-02-28T15:45:29;14.48;;;7.30;;
21014;SDS011;19207;-23.482;-46.500;2023-02-28T15:48:32;13.15;;;7.25;;
21014;SDS011;19207;-23.482;-46.500;2023-02-28T15:51:24;14.15;;;7.03;;
21014;SDS011;19207;-23.482;-46.500;2023-02-28T15:54:18;11.07;;;7.45;;
21014;SDS011;19207;-23.482;-46.500;2023-02-28T15:57:07;11.43;;;7.32;;
21014;SDS011;19207;-23.482;-46.500;2023-02-28T15:59:57;9.02;;;6.93;;
21014;SDS011;19207;-23.482;-46.500;2023-02-28T16:02:57;12.37;;;7.57;;
21014;SDS011;19207;-23.482;-46.500;2023-02-28T16:05:43;13.00;;;7.07;;
21014;SDS011;19207;-23.482;-46.500;2023-02-28T16:08:30;16.98;;;7.03;;
21014;SDS011;19207;-23.482;-46.500;2023-02-28T16:11:17;12.75;;;8.73;;
21014;SDS011;19207;-23.482;-46.500;2023-02-28T16:14:06;12.63;;;8.10;;
21014;SDS011;19207;-23.482;-46.500;2023-02-28T16:16:54;12.77;;;7.85;;
21014;SDS011;19207;-23.482;-46.500;2023-02-28T16:19:42;17.65;;;7.95;;
21014;SDS011;19207;-23.482;-46.500;2023-02-28T16:22:28;17.00;;;8.40;;
21014;SDS011;19207;-23.482;-46.500;2023-02-28T16:25:16;14.38;;;9.32;;
21014;SDS011;19207;-23.482;-46.500;2023-02-28T16:28:29;13.62;;;8.60;;
21014;SDS011;19207;-23.482;-46.500;2023-02-28T16:31:18;12.57;;;8.70;;
21014;SDS011;19207;-23.482;-46.500;2023-02-28T16:34:08;15.35;;;9.45;;
21014;SDS011;19207;-23.482;-46.500;2023-02-28T16:36:55;16.37;;;9.88;;
21014;SDS011;19207;-23.482;-46.500;2023-02-28T16:39:45;16.35;;;9.98;;
21014;SDS011;19207;-23.482;-46.500;2023-02-28T16:42:32;15.45;;;9.38;;
21014;SDS011;19207;-23.482;-46.500;2023-02-28T16:45:34;12.30;;;7.45;;
21014;SDS011;19207;-23.482;-46.500;2023-02-28T16:48:21;10.85;;;7.40;;
21014;SDS011;19207;-23.482;-46.500;2023-02-28T16:51:17;12.02;;;7.05;;
21014;SDS011;19207;-23.482;-46.500;2023-02-28T16:54:10;18.63;;;8.63;;
21014;SDS011;19207;-23.482;-46.500;2023-02-28T16:57:03;11.02;;;4.72;;
21014;SDS011;19207;-23.482;-46.500;2023-02-28T16:59:53;9.23;;;4.25;;
21014;SDS011;19207;-23.482;-46.500;2023-02-28T17:02:40;9.68;;;5.07;;
21014;SDS011;19207;-23.482;-46.500;2023-02-28T17:05:27;11.60;;;7.25;;
21014;SDS011;19207;-23.482;-46.500;2023-02-28T17:08:15;23.47;;;9.30;;
21014;SDS011;19207;-23.482;-46.500;2023-02-28T17:11:02;14.23;;;7.28;;
21014;SDS011;19207;-23.482;-46.500;2023-02-28T17:13:49;14.00;;;7.07;;
21014;SDS011;19207;-23.482;-46.500;2023-02-28T17:16:37;16.52;;;7.28;;
21014;SDS011;19207;-23.482;-46.500;2023-02-28T17:19:27;18.30;;;8.20;;
21014;SDS011;19207;-23.482;-46.500;2023-02-28T17:22:14;19.92;;;12.05;;
21014;SDS011;19207;-23.482;-46.500;2023-02-28T17:25:00;33.17;;;16.30;;
21014;SDS011;19207;-23.482;-46.500;2023-02-28T17:27:48;29.50;;;12.75;;
21014;SDS011;19207;-23.482;-46.500;2023-02-28T17:30:36;33.17;;;17.02;;
21014;SDS011;19207;-23.482;-46.500;2023-02-28T17:33:24;26.33;;;13.40;;
21014;SDS011;19207;-23.482;-46.500;2023-02-28T17:36:14;27.02;;;13.18;;
21014;SDS011;19207;-23.482;-46.500;2023-02-28T17:39:01;31.15;;;12.60;;
21014;SDS011;19207;-23.482;-46.500;2023-02-28T17:41:48;23.70;;;13.30;;
21014;SDS011;19207;-23.482;-46.500;2023-02-28T17:44:34;39.75;;;13.90;;
21014;SDS011;19207;-23.482;-46.500;2023-02-28T17:47:22;29.50;;;13.40;;
21014;SDS011;19207;-23.482;-46.500;2023-02-28T17:50:15;32.45;;;15.18;;
21014;SDS011;19207;-23.482;-46.500;2023-02-28T17:53:02;4.55;;;2.37;;
21014;SDS011;19207;-23.482;-46.500;2023-02-28T17:55:49;7.35;;;2.87;;
21014;SDS011;19207;-23.482;-46.500;2023-02-28T17:58:37;21.17;;;8.68;;
21014;SDS011;19207;-23.482;-46.500;2023-02-28T18:01:24;29.30;;;8.90;;
21014;SDS011;19207;-23.482;-46.500;2023-02-28T18:04:11;14.40;;;7.65;;
21014;SDS011;19207;-23.482;-46.500;2023-02-28T18:06:58;16.48;;;8.50;;
21014;SDS011;19207;-23.482;-46.500;2023-02-28T18:09:46;39.47;;;17.10;;
21014;SDS011;19207;-23.482;-46.500;2023-02-28T18:12:32;34.17;;;11.55;;
21014;SDS011;19207;-23.482;-46.500;2023-02-28T18:15:20;21.23;;;10.60;;
21014;SDS011;19207;-23.482;-46.500;2023-02-28T18:18:08;9.52;;;4.70;;
21014;SDS011;19207;-23.482;-46.500;2023-02-28T18:20:55;5.60;;;3.12;;
21014;SDS011;19207;-23.482;-46.500;2023-02-28T18:23:42;5.07;;;3.40;;
21014;SDS011;19207;-23.482;-46.500;2023-02-28T18:26:33;6.35;;;3.70;;
21014;SDS011;19207;-23.482;-46.500;2023-02-28T18:29:24;4.22;;;3.28;;
21014;SDS011;19207;-23.482;-46.500;2023-02-28T18:32:12;1.70;;;1.60;;
21014;SDS011;19207;-23.482;-46.500;2023-02-28T18:34:59;2.75;;;2.10;;
21014;SDS011;19207;-23.482;-46.500;2023-02-28T18:37:46;2.00;;;1.90;;
21014;SDS011;19207;-23.482;-46.500;2023-02-28T18:40:32;4.68;;;2.62;;